FLI402 BIKF-EKVG
Flight info
| Callsign | FLI402 |
|---|---|
| Flight time | N/A |
| Altitude | 39000 |
| Route | OSKUM DCT MAGNI |
| Aircraft | A20N/M-SDE2E3FGHIRWXY/LB1 |
Departure
| Time | N/A |
|---|---|
| Airport | Keflavik International Airport (BIKF) |
Arrival
| Time | 2026-05-03 20:26 |
|---|---|
| Airport | Vágar Airport (EKVG) |
| Time | Latitude | Longitude | Altitude | Speed | Heading |
|---|---|---|---|---|---|
| 2026-05-03 20:15 | 62.19772 | -8.16657 | 16430 ft | 421 kts | 114° |
| 2026-05-03 20:15 | 62.18738 | -8.10762 | 15794 ft | 417 kts | 114° |
| 2026-05-03 20:15 | 62.17715 | -8.04952 | 15165 ft | 413 kts | 114° |
| 2026-05-03 20:15 | 62.16705 | -7.99231 | 14541 ft | 409 kts | 114° |
| 2026-05-03 20:16 | 62.15706 | -7.93597 | 13925 ft | 406 kts | 114° |
| 2026-05-03 20:16 | 62.14719 | -7.88046 | 13314 ft | 402 kts | 114° |
| 2026-05-03 20:16 | 62.13721 | -7.82455 | 12697 ft | 398 kts | 114° |
| 2026-05-03 20:16 | 62.12620 | -7.77064 | 12087 ft | 393 kts | 118° |
| 2026-05-03 20:17 | 62.11427 | -7.71882 | 11480 ft | 389 kts | 121° |
| 2026-05-03 20:17 | 62.10046 | -7.66995 | 10836 ft | 385 kts | 127° |
| 2026-05-03 20:17 | 62.08437 | -7.62485 | 10235 ft | 380 kts | 133° |
| 2026-05-03 20:17 | 62.06689 | -7.58265 | 9868 ft | 376 kts | 134° |
| 2026-05-03 20:18 | 62.04976 | -7.54235 | 9521 ft | 364 kts | 135° |
| 2026-05-03 20:18 | 62.03338 | -7.50385 | 9023 ft | 342 kts | 134° |
| 2026-05-03 20:18 | 62.01765 | -7.46692 | 8411 ft | 326 kts | 134° |
| 2026-05-03 20:18 | 62.00330 | -7.43306 | 8376 ft | 294 kts | 134° |
| 2026-05-03 20:19 | 61.99004 | -7.40177 | 8182 ft | 276 kts | 134° |
| 2026-05-03 20:19 | 61.97753 | -7.37235 | 7949 ft | 265 kts | 134° |
| 2026-05-03 20:19 | 61.96613 | -7.34244 | 7671 ft | 259 kts | 123° |
| 2026-05-03 20:19 | 61.95747 | -7.30882 | 7281 ft | 257 kts | 119° |
| 2026-05-03 20:20 | 61.94954 | -7.27586 | 7022 ft | 244 kts | 118° |
| 2026-05-03 20:20 | 61.94216 | -7.24501 | 6786 ft | 231 kts | 118° |
| 2026-05-03 20:20 | 61.93520 | -7.21597 | 6676 ft | 211 kts | 118° |
| 2026-05-03 20:20 | 61.93000 | -7.18741 | 6223 ft | 211 kts | 95° |
| 2026-05-03 20:21 | 61.93250 | -7.15740 | 5749 ft | 204 kts | 60° |
| 2026-05-03 20:21 | 61.94071 | -7.13413 | 5412 ft | 195 kts | 34° |
| 2026-05-03 20:21 | 61.95150 | -7.11801 | 5091 ft | 187 kts | 26° |
| 2026-05-03 20:21 | 61.96265 | -7.10351 | 4560 ft | 188 kts | 25° |
| 2026-05-03 20:22 | 61.97380 | -7.08946 | 3967 ft | 189 kts | 25° |
| 2026-05-03 20:22 | 61.98521 | -7.07643 | 3368 ft | 186 kts | 14° |
| 2026-05-03 20:22 | 61.99759 | -7.07286 | 2777 ft | 181 kts | 356° |
| 2026-05-03 20:22 | 62.00916 | -7.08102 | 2248 ft | 177 kts | 324° |
| 2026-05-03 20:23 | 62.01724 | -7.09885 | 2105 ft | 159 kts | 309° |
| 2026-05-03 20:23 | 62.02304 | -7.11715 | 1990 ft | 138 kts | 306° |
| 2026-05-03 20:23 | 62.02786 | -7.13369 | 1761 ft | 128 kts | 303° |
| 2026-05-03 20:23 | 62.03216 | -7.15031 | 1572 ft | 128 kts | 302° |
| 2026-05-03 20:24 | 62.03631 | -7.16714 | 1388 ft | 128 kts | 302° |
| 2026-05-03 20:24 | 62.04047 | -7.18406 | 1186 ft | 127 kts | 302° |
| 2026-05-03 20:24 | 62.04456 | -7.20059 | 985 ft | 127 kts | 302° |
| 2026-05-03 20:24 | 62.04872 | -7.21738 | 775 ft | 126 kts | 302° |
| 2026-05-03 20:25 | 62.05278 | -7.23380 | 562 ft | 126 kts | 302° |
| 2026-05-03 20:25 | 62.05692 | -7.25034 | 411 ft | 126 kts | 302° |
| 2026-05-03 20:25 | 62.06097 | -7.26673 | 262 ft | 119 kts | 301° |
| 2026-05-03 20:25 | 62.06377 | -7.27794 | 281 ft | 55 kts | 299° |
| 2026-05-03 20:26 | 62.06514 | -7.28340 | 277 ft | 38 kts | 297° |
| 2026-05-03 20:26 | 62.06636 | -7.28830 | 270 ft | 34 kts | 296° |
| 2026-05-03 20:26 | 62.06700 | -7.29114 | 266 ft | 14 kts | 277° |
| 2026-05-03 20:26 | 62.06715 | -7.29152 | 266 ft | 10 kts | 117° |
| 2026-05-03 20:27 | 62.06666 | -7.28963 | 268 ft | 15 kts | 118° |
| 2026-05-03 20:27 | 62.06611 | -7.28740 | 271 ft | 20 kts | 118° |
| 2026-05-03 20:27 | 62.06538 | -7.28446 | 276 ft | 22 kts | 118° |
| 2026-05-03 20:27 | 62.06483 | -7.28195 | 278 ft | 14 kts | 85° |
| 2026-05-03 20:28 | 62.06565 | -7.28094 | 277 ft | 14 kts | 15° |
| 2026-05-03 20:28 | 62.06622 | -7.28089 | 277 ft | 4 kts | 358° |
| 2026-05-03 20:28 | 62.06659 | -7.28098 | 277 ft | 5 kts | 357° |
| 2026-05-03 20:28 | 62.06691 | -7.28081 | 277 ft | 3 kts | 24° |
| 2026-05-03 20:29 | 62.06706 | -7.28050 | 278 ft | 2 kts | 67° |
| 2026-05-03 20:29 | 62.06707 | -7.28044 | 278 ft | 0 kts | 67° |